Rosebush, Michigan
Current Conditions -  °F | °C
As of 7:14 PM on Sunday 23 Nov 2014 (Local Time) from KMOP Reporting Station
Light Rain Light Rain  
Wind Chill: 44°   Ceiling: 500
Heat Index: 47°   Visibility: 2.5mi
Dew Point: 47°   Wind: 8mph
Humidity: 97%   Direction: 120°ESE
Pressure: 29.52"   Gusts: NA
Location:  43.7°N, 84.77°W
Report Text: KMOP 240014Z AUTO 12007KT 2 1/2SM -RA OVC005 09/08 A2952 RMK AO2 P0006 T00860081
Loading
Personal Weather Stations






























Interactive Weather Map New forecast layout! Learn more

10-Day Weather Forecast

Advertisements
Track Severe Weather on mobile